Baker, FL (32531)

11:30 AM CST on February 11, 2016 (GMT -0600)
Patton Street | | Change Station
CLOSE
Current Station
Personal Weather Station
Location: Crestview, FL
Elevation: 249 ft
Nearby Weather Stations

Elev 249 ft 30.77 °N, 86.56 °W | Updated 57 seconds ago

Clear
Clear
69.6 °F
Feels Like 69.6 °F
N
5.3
Wind Variable Wind from NW

Today
High -- | Low -- °F
--% Chance of Precip.
Yesterday
High -- | Low -- °F
Precip. -- in
Pressure 30.23 in
Visibility 10.0 miles
Clouds Clear
Dew Point 50 °F
Humidity 50%
Rainfall 0.00 in
Snow Depth Not available.
6:31 AM 5:30 PM
Waxing Crescent, 13% visible
METAR KCEW 111653Z AUTO 23012KT 10SM CLR 19/07 A3023 RMK AO2 RAB39E45 SLP235 P0000 T01940067
Pressure 30.23 in
Visibility 10.0 miles
Clouds Clear
Dew Point 50 °F
Humidity 50%
Rainfall 0.00 in
Snow Depth Not available.
6:31 AM 5:30 PM
Waxing Crescent, 13% visible
METAR KCEW 111653Z AUTO 23012KT 10SM CLR 19/07 A3023 RMK AO2 RAB39E45 SLP235 P0000 T01940067

10-Day Weather Forecast

Almanac

Astronomy

Feb. 11, 2016 Rise Set
Actual Time
Civil Twilight
Nautical Twilight
Astronomical Twilight
Moon
Length of Visible Light
Length of Day
Tomorrow will be .
, % of the Moon is Illuminated

Today's Extremes

State Highs State Lows

Community

WunderPhotos

Upload Photos

1,892,107 photos uploaded!

WunderBlog® & News

Nearby

Air Quality

  Air Quality AQ Index Pollutant
Not available.

Snow Depth

Station Depth Elevation

Earthquake Activity

City Distance Mag. Time & Date
Minimum magnitude displayed is 2.5.

Coastal Water Temperatures

Place Temperature

Stations

Nearby Weather Stations

Station Location Temp. Windchill Dew Point Humidity Wind Precip. Elev Updated Type
                   

Watches & Warnings

There are currently no watches in effect.